KSPR

Ship Shoal

Ship Shoal, Louisiana, USA
METAR KSPR 181455Z AUTO 08009G19KT 050V180 10SM BKN018 04/M01 A3054 RMK A01
Observed Flight Rules
Jan-18 @ 14:55 UTC (30 minutes ago) Marginal Visual Flight Rules
Wind Visibility Clouds
80° at 9 knots
 Gusting to 19 knots
10 miles
  • Broken at 1,800' AGL
Temperatures Readings
Current 4°C / 39°F
Dewpoint -1°C / 30°F
Humidity 70%
Altimeter 30.54" Hg
Pressure 1034 hPa
Elevation 31
METAR KSPR 181455Z AUTO 08009G19KT 050V180 10SM BKN018 04/M01 A3054 RMK A01
Observed Flight Rules
Jan-18 @ 14:55 UTC
(30 minutes ago)
MVFR
Wind Visibility
80° at 9 knots
 Gusting to 19 knots
10 miles
Clouds
  • Broken at 1,800' AGL
Temperature Dewpoint
4°C / 39°F -1°C / 30°F
Humidity Altimeter Pressure
70% 30.54" Hg 1034 hPa